Pulleys Mill, Illinois
Current Conditions -  °F | °C
As of 6:15 AM on Sunday 23 Nov 2014 (Local Time) from KMWA Reporting Station
Scattered Clouds Scattered Clouds  
Wind Chill: 14°   Ceiling: Unl
Heat Index: 14°   Visibility: 10mi
Dew Point:   Wind: 8mph
Humidity: 72%   Direction: 160°SSE
Pressure: 29.81"   Gusts: NA
Location:  37.565°N, 88.982°W
Report Text: KMWA 231215Z AUTO 16007KT 10SM SCT034 14/09 A2981 RMK AO2
Loading
Personal Weather Stations






























Interactive Weather Map New forecast layout! Learn more

10-Day Weather Forecast

Advertisements
Track Severe Weather on mobile